Arlington, United Kingdom
Current Conditions -  °F | °C
As of 4:50 AM on Monday 22 Dec 2014 (Local Time) from EGDX Reporting Station
Light Rain Light Rain  
Wind Chill: 52°   Ceiling: 200
Heat Index: 52°   Visibility: 3mi
Dew Point: 52°   Wind: 22mph
Humidity: 100%   Direction: 250°WSW
Pressure: 30.09"   Gusts: NA
Location:  51.15°N, 3.98°W
Report Text: EGDX 220450Z AUTO 25019KT 5000 -RADZ OVC002/// 11/11 Q1019
Loading
Personal Weather Stations






























Interactive Weather Map New forecast layout! Learn more

10-Day Weather Forecast

Advertisements
Track Severe Weather on mobile